createdAt,value
2023-05-07T00:00:10.384Z,13.10
2023-05-07T00:02:38.781Z,14.52
2023-05-07T00:05:09.838Z,15.20
2023-05-07T00:07:38.115Z,14.95
2023-05-07T00:10:07.531Z,14.75
2023-05-07T00:12:35.658Z,16.45
2023-05-07T00:15:05.287Z,15.05
2023-05-07T00:17:33.357Z,15.65
2023-05-07T00:20:01.265Z,14.75
2023-05-07T00:22:31.196Z,14.05
2023-05-07T00:24:59.166Z,14.83
2023-05-07T00:27:27.130Z,14.00
2023-05-07T00:29:55.088Z,15.93
2023-05-07T00:32:23.012Z,15.13
2023-05-07T00:34:52.056Z,15.27
2023-05-07T00:37:20.086Z,15.35
2023-05-07T00:39:49.332Z,15.15
2023-05-07T00:42:17.329Z,15.13
2023-05-07T00:44:45.278Z,15.52
2023-05-07T00:47:14.099Z,14.98
2023-05-07T00:49:45.581Z,15.75
2023-05-07T00:52:15.622Z,14.85
2023-05-07T00:54:44.198Z,15.95
2023-05-07T00:57:13.659Z,16.13
2023-05-07T00:59:41.754Z,16.13
2023-05-07T01:02:09.676Z,16.38
2023-05-07T01:04:37.815Z,16.13
2023-05-07T01:07:07.173Z,17.40
2023-05-07T01:09:36.292Z,17.73
2023-05-07T01:12:05.803Z,17.80
2023-05-07T01:14:35.459Z,19.70
2023-05-07T01:17:03.606Z,17.35
2023-05-07T01:19:32.297Z,17.75
2023-05-07T01:22:06.045Z,20.15
2023-05-07T01:24:35.319Z,20.67
2023-05-07T01:27:03.344Z,19.90
2023-05-07T01:29:31.320Z,21.40
2023-05-07T01:32:00.672Z,21.48
2023-05-07T01:34:32.532Z,21.70
2023-05-07T01:37:02.261Z,20.02
2023-05-07T01:39:32.127Z,21.20
2023-05-07T01:42:01.512Z,20.85
2023-05-07T01:44:29.855Z,20.80
2023-05-07T01:46:58.879Z,19.45
2023-05-07T01:49:27.209Z,19.87
2023-05-07T01:51:55.153Z,18.92
2023-05-07T01:54:28.774Z,18.40
2023-05-07T01:56:58.145Z,18.45
2023-05-07T01:59:27.637Z,18.70
2023-05-07T02:01:55.598Z,19.40
2023-05-07T02:04:23.627Z,17.40
2023-05-07T02:06:51.581Z,17.70
2023-05-07T02:09:19.694Z,18.40
2023-05-07T02:11:47.641Z,16.23
2023-05-07T02:14:16.454Z,17.08
2023-05-07T02:16:45.992Z,15.15
2023-05-07T02:19:14.099Z,15.65
2023-05-07T02:21:42.100Z,16.08
2023-05-07T02:24:10.153Z,16.17
2023-05-07T02:26:38.015Z,15.32
2023-05-07T02:29:05.845Z,14.18
2023-05-07T02:31:34.870Z,14.43
2023-05-07T02:34:04.933Z,14.70
2023-05-07T02:36:32.933Z,14.70
2023-05-07T02:39:01.204Z,15.30
2023-05-07T02:41:29.309Z,14.00
2023-05-07T02:43:57.246Z,13.43
2023-05-07T02:46:25.235Z,12.75
2023-05-07T02:48:53.256Z,12.45
2023-05-07T02:51:26.081Z,12.20
2023-05-07T02:53:54.221Z,12.13
2023-05-07T02:56:22.089Z,12.10
2023-05-07T02:58:49.996Z,12.10
2023-05-07T03:01:17.945Z,12.40
2023-05-07T03:03:46.598Z,11.70
2023-05-07T03:06:14.717Z,11.10
2023-05-07T03:08:43.981Z,10.80
2023-05-07T03:11:11.985Z,11.55
2023-05-07T03:13:39.855Z,10.63
2023-05-07T03:16:08.446Z,10.95
2023-05-07T03:18:36.461Z,11.80
2023-05-07T03:21:04.684Z,10.45
2023-05-07T03:23:32.585Z,10.43
2023-05-07T03:26:01.800Z,9.85
2023-05-07T03:28:29.706Z,10.60
2023-05-07T03:30:57.773Z,11.05
2023-05-07T03:33:25.875Z,10.50
2023-05-07T03:35:53.785Z,10.27
2023-05-07T03:38:21.728Z,10.10
2023-05-07T03:40:51.079Z,9.60
2023-05-07T03:43:20.397Z,8.90
2023-05-07T03:45:48.332Z,8.93
2023-05-07T03:48:16.208Z,9.90
2023-05-07T03:50:44.138Z,10.20
2023-05-07T03:53:12.022Z,11.23
2023-05-07T03:55:39.932Z,9.32
2023-05-07T03:58:07.853Z,9.73
2023-05-07T04:00:39.345Z,8.68
2023-05-07T04:03:08.359Z,8.35
2023-05-07T04:05:36.435Z,8.65
2023-05-07T04:08:04.328Z,8.02
2023-05-07T04:10:32.327Z,8.10
2023-05-07T04:13:00.319Z,8.77
2023-05-07T04:15:28.317Z,7.93
2023-05-07T04:17:57.573Z,7.78
2023-05-07T04:20:25.848Z,9.20
2023-05-07T04:22:53.780Z,8.53
2023-05-07T04:25:21.813Z,8.23
2023-05-07T04:27:51.629Z,8.50
2023-05-07T04:30:19.562Z,8.95
2023-05-07T04:32:47.624Z,8.50
2023-05-07T04:35:17.026Z,8.50
2023-05-07T04:37:44.920Z,8.93
2023-05-07T04:40:13.176Z,8.98
2023-05-07T04:42:41.351Z,7.63
2023-05-07T04:45:11.266Z,7.80
2023-05-07T04:47:39.136Z,8.40
2023-05-07T04:50:08.843Z,8.85
2023-05-07T04:52:38.116Z,9.07
2023-05-07T04:55:07.064Z,7.80
2023-05-07T04:57:35.517Z,9.57
2023-05-07T05:00:05.294Z,9.00
2023-05-07T05:02:33.217Z,9.02
2023-05-07T05:05:02.501Z,8.82
2023-05-07T05:07:30.534Z,9.82
2023-05-07T05:09:59.981Z,9.40
2023-05-07T05:12:27.845Z,9.73
2023-05-07T05:14:56.164Z,10.07
2023-05-07T05:17:24.362Z,8.73
2023-05-07T05:19:52.302Z,10.15
2023-05-07T05:22:20.184Z,9.65
2023-05-07T05:24:49.739Z,9.73
2023-05-07T05:27:19.032Z,9.23
2023-05-07T05:29:46.895Z,9.60
2023-05-07T05:32:14.939Z,10.10
2023-05-07T05:34:42.911Z,9.90
2023-05-07T05:37:10.827Z,10.27
2023-05-07T05:39:38.754Z,9.80
2023-05-07T05:42:06.818Z,10.27
2023-05-07T05:44:36.228Z,11.00
2023-05-07T05:47:04.835Z,10.40
2023-05-07T05:49:32.742Z,10.55
2023-05-07T05:52:00.679Z,9.63
2023-05-07T05:54:28.621Z,9.33
2023-05-07T05:56:56.634Z,9.75
2023-05-07T05:59:24.950Z,9.70
2023-05-07T06:01:54.327Z,9.10
2023-05-07T06:04:22.371Z,9.70
2023-05-07T06:06:50.263Z,9.68
2023-05-07T06:09:18.149Z,10.30
2023-05-07T06:11:46.179Z,9.65
2023-05-07T06:14:14.092Z,10.35
2023-05-07T06:16:42.946Z,11.60
2023-05-07T06:19:12.292Z,11.07
2023-05-07T06:21:41.231Z,12.45
2023-05-07T06:24:09.536Z,12.82
2023-05-07T06:26:37.465Z,12.95
2023-05-07T06:29:05.614Z,13.40
2023-05-07T06:31:33.824Z,14.40
2023-05-07T06:34:03.211Z,14.93
2023-05-07T06:36:32.575Z,13.73
2023-05-07T06:39:00.616Z,13.70
2023-05-07T06:41:28.463Z,15.52
2023-05-07T06:43:56.350Z,16.85
2023-05-07T06:46:24.394Z,16.85
2023-05-07T06:48:53.236Z,17.63
2023-05-07T06:51:21.121Z,16.50
2023-05-07T06:53:50.363Z,17.67
2023-05-07T06:56:18.266Z,17.33
2023-05-07T06:58:46.451Z,17.70
2023-05-07T07:01:14.454Z,18.17
2023-05-07T07:03:42.408Z,19.15
2023-05-07T07:06:10.348Z,19.90
2023-05-07T07:08:39.623Z,19.30
2023-05-07T07:11:08.888Z,18.10
2023-05-07T07:13:36.796Z,20.98
2023-05-07T07:16:05.361Z,20.85
2023-05-07T07:18:33.255Z,20.63
2023-05-07T07:21:01.171Z,19.98
2023-05-07T07:23:29.129Z,18.73
2023-05-07T07:25:57.269Z,20.70
2023-05-07T07:28:26.687Z,21.17
2023-05-07T07:30:54.531Z,20.90
2023-05-07T07:33:22.534Z,20.73
2023-05-07T07:35:50.631Z,20.88
2023-05-07T07:38:18.617Z,21.20
2023-05-07T07:40:47.095Z,21.13
2023-05-07T07:43:14.972Z,20.45
2023-05-07T07:45:44.885Z,19.95
2023-05-07T07:48:12.977Z,20.10
2023-05-07T07:50:45.341Z,21.10
2023-05-07T07:53:14.200Z,21.23
2023-05-07T07:55:42.234Z,22.17
2023-05-07T07:58:10.232Z,21.50
2023-05-07T08:00:38.275Z,21.60
2023-05-07T08:03:08.501Z,19.17
2023-05-07T08:05:37.307Z,20.07
2023-05-07T08:08:05.664Z,19.92
2023-05-07T08:10:35.580Z,19.15
2023-05-07T08:13:04.868Z,18.67
2023-05-07T08:15:33.146Z,19.13
2023-05-07T08:18:02.056Z,18.95
2023-05-07T08:20:31.745Z,20.47
2023-05-07T08:22:59.788Z,19.85
2023-05-07T08:25:27.725Z,19.60
2023-05-07T08:27:55.615Z,20.27
2023-05-07T08:30:23.630Z,19.50
2023-05-07T08:32:51.529Z,19.15
2023-05-07T08:35:19.473Z,19.52
2023-05-07T08:37:48.699Z,17.90
2023-05-07T08:40:16.957Z,17.77
2023-05-07T08:42:46.577Z,17.80
2023-05-07T08:45:14.930Z,16.90
2023-05-07T08:47:46.751Z,19.00
2023-05-07T08:50:14.971Z,18.57
2023-05-07T08:52:43.030Z,18.47
2023-05-07T08:55:13.053Z,18.80
2023-05-07T08:57:41.156Z,17.83
2023-05-07T09:00:10.791Z,17.30
2023-05-07T09:02:38.925Z,15.27
2023-05-07T09:05:07.925Z,16.17
2023-05-07T09:07:36.005Z,14.60
2023-05-07T09:10:05.068Z,15.95
2023-05-07T09:12:36.175Z,14.87
2023-05-07T09:15:04.478Z,13.05
2023-05-07T09:17:32.475Z,12.20
2023-05-07T09:20:05.798Z,11.57
2023-05-07T09:22:34.209Z,9.20
2023-05-07T09:25:02.254Z,9.70
2023-05-07T09:27:30.515Z,11.40
2023-05-07T09:29:59.852Z,11.60
2023-05-07T09:32:28.710Z,11.95
2023-05-07T09:34:56.660Z,12.80
2023-05-07T09:37:24.607Z,12.65
2023-05-07T09:39:52.606Z,13.27
2023-05-07T09:42:25.562Z,13.85
2023-05-07T09:44:53.740Z,13.15
2023-05-07T09:47:26.311Z,14.48
2023-05-07T09:49:59.243Z,13.73
2023-05-07T09:52:29.701Z,12.38
2023-05-07T09:55:00.162Z,10.82
2023-05-07T09:57:29.286Z,11.00
2023-05-07T09:59:59.959Z,9.32
2023-05-07T10:02:32.549Z,11.77
2023-05-07T10:05:01.448Z,12.10
2023-05-07T10:07:30.516Z,11.67
2023-05-07T10:09:59.587Z,12.95
2023-05-07T10:12:28.130Z,12.15
2023-05-07T10:14:58.098Z,12.23
2023-05-07T10:17:26.527Z,11.80
2023-05-07T10:19:56.881Z,11.32
2023-05-07T10:22:26.316Z,11.45
2023-05-07T10:24:56.425Z,10.88
2023-05-07T10:27:25.948Z,10.43
2023-05-07T10:30:02.772Z,9.73
2023-05-07T10:32:41.961Z,10.07
2023-05-07T10:35:16.103Z,10.38
2023-05-07T10:37:44.710Z,11.10
2023-05-07T10:40:14.141Z,11.02
2023-05-07T10:42:56.765Z,11.38
2023-05-07T10:45:25.852Z,8.90
2023-05-07T10:48:27.262Z,8.70
2023-05-07T10:51:22.043Z,7.63
2023-05-07T10:53:50.662Z,6.90
2023-05-07T10:56:36.496Z,6.50
2023-05-07T10:59:33.116Z,6.10
2023-05-07T11:02:03.750Z,6.45
2023-05-07T11:04:35.779Z,7.00
2023-05-07T11:07:27.315Z,6.50
2023-05-07T11:10:02.297Z,6.70
2023-05-07T11:12:49.695Z,5.75
2023-05-07T11:15:35.600Z,6.68
2023-05-07T11:18:05.982Z,6.57
2023-05-07T11:20:54.640Z,7.72
2023-05-07T11:24:11.631Z,8.35
2023-05-07T11:26:48.902Z,7.90
2023-05-07T11:29:22.228Z,7.95
2023-05-07T11:31:52.179Z,7.25
2023-05-07T11:34:23.912Z,8.18
2023-05-07T11:36:52.602Z,8.35
2023-05-07T11:39:31.417Z,8.02
2023-05-07T11:42:01.052Z,8.50
2023-05-07T11:44:43.341Z,8.80
2023-05-07T11:47:12.530Z,8.60
2023-05-07T11:49:41.600Z,8.90
2023-05-07T11:52:09.633Z,8.40
2023-05-07T11:54:38.910Z,7.03
2023-05-07T11:57:08.514Z,8.37
2023-05-07T11:59:41.247Z,7.75
2023-05-07T12:02:09.297Z,8.00
2023-05-07T12:04:37.328Z,11.32
2023-05-07T12:07:05.241Z,7.70
2023-05-07T12:09:34.924Z,7.50
2023-05-07T12:12:06.175Z,8.80
2023-05-07T12:14:39.342Z,8.10
2023-05-07T12:17:08.424Z,9.48
2023-05-07T12:19:37.037Z,8.57
2023-05-07T12:22:05.768Z,9.50
2023-05-07T12:24:47.467Z,8.10
2023-05-07T12:27:15.616Z,11.50
2023-05-07T12:29:48.482Z,7.28
2023-05-07T12:32:17.387Z,7.95
2023-05-07T12:34:45.987Z,9.25
2023-05-07T12:37:14.814Z,9.95
2023-05-07T12:39:48.000Z,10.75
2023-05-07T12:42:17.866Z,11.77
2023-05-07T12:44:48.299Z,12.93
2023-05-07T12:47:17.196Z,13.85
2023-05-07T12:49:46.841Z,14.50
2023-05-07T12:52:15.443Z,20.77
2023-05-07T12:54:43.327Z,20.60
2023-05-07T12:57:12.160Z,19.97
2023-05-07T12:59:41.531Z,20.90
2023-05-07T13:02:11.424Z,17.73
2023-05-07T13:04:39.476Z,18.70
2023-05-07T13:07:07.428Z,17.60
2023-05-07T13:09:35.324Z,16.45
2023-05-07T13:12:03.286Z,16.87
2023-05-07T13:14:31.268Z,16.42
2023-05-07T13:16:59.141Z,17.60
2023-05-07T13:19:29.730Z,14.95
2023-05-07T13:21:59.376Z,17.05
2023-05-07T13:24:27.270Z,14.55
2023-05-07T13:26:55.785Z,15.45
2023-05-07T13:29:29.413Z,15.85
2023-05-07T13:31:58.794Z,13.00
2023-05-07T13:34:28.251Z,12.40
2023-05-07T13:36:56.435Z,12.90
2023-05-07T13:39:24.330Z,8.63
2023-05-07T13:41:52.271Z,6.70
2023-05-07T13:44:20.126Z,4.45
2023-05-07T13:46:48.125Z,3.03
2023-05-07T13:49:16.071Z,3.10
2023-05-07T13:51:45.302Z,3.80
2023-05-07T13:54:13.269Z,3.60
2023-05-07T13:56:41.509Z,5.22
2023-05-07T13:59:09.447Z,5.50
2023-05-07T14:01:37.372Z,4.40
2023-05-07T14:04:05.565Z,4.35
2023-05-07T14:06:33.547Z,4.45
2023-05-07T14:09:02.812Z,3.60
2023-05-07T14:11:30.707Z,4.25
2023-05-07T14:13:59.424Z,4.33
2023-05-07T14:16:27.340Z,3.45
2023-05-07T14:18:57.904Z,4.47
2023-05-07T14:21:26.321Z,4.82
2023-05-07T14:23:54.190Z,5.60
2023-05-07T14:26:24.350Z,5.10
2023-05-07T14:28:52.168Z,4.40
2023-05-07T14:31:20.068Z,4.43
2023-05-07T14:33:47.958Z,3.90
2023-05-07T14:36:16.479Z,4.03
2023-05-07T14:38:44.548Z,4.40
2023-05-07T14:41:12.466Z,4.57
2023-05-07T14:43:41.711Z,5.28
2023-05-07T14:46:09.691Z,6.28
2023-05-07T14:48:37.712Z,5.53
2023-05-07T14:51:05.756Z,5.40
2023-05-07T14:53:33.813Z,4.60
2023-05-07T14:56:01.771Z,4.35
2023-05-07T14:58:29.676Z,4.82
2023-05-07T15:00:59.091Z,4.60
2023-05-07T15:03:27.205Z,4.70
2023-05-07T15:05:55.554Z,4.40
2023-05-07T15:08:23.556Z,5.35
2023-05-07T15:10:51.554Z,5.50
2023-05-07T15:13:19.599Z,5.83
2023-05-07T15:15:47.614Z,6.30
2023-05-07T15:18:17.168Z,8.52
2023-05-07T15:20:45.189Z,9.13
2023-05-07T15:23:14.974Z,9.40
2023-05-07T15:25:42.971Z,10.90
2023-05-07T15:28:11.544Z,12.25
2023-05-07T15:30:39.498Z,12.90
2023-05-07T15:33:07.428Z,11.68
2023-05-07T15:35:36.887Z,12.00
2023-05-07T15:38:04.944Z,11.48
2023-05-07T15:40:33.833Z,10.77
2023-05-07T15:43:01.841Z,12.37
2023-05-07T15:45:30.188Z,12.77
2023-05-07T15:47:58.296Z,13.15
2023-05-07T15:50:26.330Z,13.57
2023-05-07T15:52:55.605Z,12.55
2023-05-07T15:55:23.799Z,11.60
2023-05-07T15:57:52.500Z,11.73
2023-05-07T16:00:21.084Z,11.63
2023-05-07T16:02:49.120Z,12.30
2023-05-07T16:05:17.102Z,12.02
2023-05-07T16:07:45.096Z,10.60
2023-05-07T16:10:14.932Z,11.07
2023-05-07T16:12:42.955Z,11.52
2023-05-07T16:15:11.678Z,12.15
2023-05-07T16:17:40.014Z,11.63
2023-05-07T16:20:09.528Z,13.80
2023-05-07T16:22:37.711Z,13.93
2023-05-07T16:25:06.374Z,13.55
2023-05-07T16:27:35.632Z,14.57
2023-05-07T16:30:03.613Z,15.00
2023-05-07T16:32:31.593Z,15.00
2023-05-07T16:34:59.642Z,13.90
2023-05-07T16:37:29.291Z,13.27
2023-05-07T16:39:58.194Z,14.43
2023-05-07T16:42:26.178Z,14.02
2023-05-07T16:44:55.654Z,14.30
2023-05-07T16:47:23.544Z,13.98
2023-05-07T16:49:52.097Z,15.33
2023-05-07T16:52:19.999Z,13.63
2023-05-07T16:54:48.021Z,14.27
2023-05-07T16:57:15.930Z,13.20
2023-05-07T16:59:43.818Z,14.73
2023-05-07T17:02:13.160Z,14.50
2023-05-07T17:04:41.137Z,14.27
2023-05-07T17:07:09.089Z,13.40
2023-05-07T17:09:37.019Z,15.00
2023-05-07T17:12:05.576Z,15.63
2023-05-07T17:14:33.588Z,15.55
2023-05-07T17:17:01.440Z,15.40
2023-05-07T17:19:30.751Z,16.17
2023-05-07T17:21:58.584Z,15.13
2023-05-07T17:24:26.464Z,15.00
2023-05-07T17:26:54.292Z,15.82
2023-05-07T17:29:22.297Z,16.17
2023-05-07T17:31:50.192Z,15.95
2023-05-07T17:34:18.171Z,15.23
2023-05-07T17:36:47.455Z,14.30
2023-05-07T17:39:15.333Z,14.68
2023-05-07T17:41:43.262Z,13.10
2023-05-07T17:44:11.151Z,13.93
2023-05-07T17:46:38.990Z,13.45
2023-05-07T17:49:07.084Z,13.88
2023-05-07T17:51:49.913Z,12.70
2023-05-07T17:54:24.186Z,13.80
2023-05-07T17:56:52.326Z,13.02
2023-05-07T17:59:20.238Z,13.60
2023-05-07T18:01:48.286Z,13.00
2023-05-07T18:04:16.264Z,13.55
2023-05-07T18:06:44.508Z,12.63
2023-05-07T18:09:12.410Z,12.97
2023-05-07T18:11:41.621Z,13.02
2023-05-07T18:14:09.480Z,13.25
2023-05-07T18:16:37.494Z,12.77
2023-05-07T18:19:05.507Z,12.48
2023-05-07T18:21:33.517Z,12.40
2023-05-07T18:24:01.450Z,12.75
2023-05-07T18:26:29.276Z,13.60
2023-05-07T18:28:58.561Z,11.52
2023-05-07T18:31:26.575Z,12.35
2023-05-07T18:33:55.862Z,10.65
2023-05-07T18:36:24.910Z,11.32
2023-05-07T18:38:53.513Z,11.15
2023-05-07T18:41:21.699Z,11.00
2023-05-07T18:43:49.575Z,11.20
2023-05-07T18:46:18.927Z,10.50
2023-05-07T18:48:46.833Z,10.60
2023-05-07T18:51:14.820Z,9.43
2023-05-07T18:53:42.727Z,9.60
2023-05-07T18:56:10.802Z,9.63
2023-05-07T18:58:38.906Z,8.75
2023-05-07T19:01:08.433Z,8.90
2023-05-07T19:03:38.085Z,8.43
2023-05-07T19:06:06.447Z,8.77
2023-05-07T19:08:34.300Z,8.40
2023-05-07T19:11:02.142Z,8.30
2023-05-07T19:13:30.281Z,8.45
2023-05-07T19:15:58.430Z,7.95
2023-05-07T19:18:26.502Z,7.73
2023-05-07T19:20:55.750Z,7.50
2023-05-07T19:23:23.667Z,7.70
2023-05-07T19:25:51.518Z,7.60
2023-05-07T19:28:19.591Z,7.40
2023-05-07T19:30:49.718Z,6.20
2023-05-07T19:33:17.577Z,6.90
2023-05-07T19:35:45.509Z,6.00
2023-05-07T19:38:14.761Z,6.23
2023-05-07T19:40:42.626Z,5.70
2023-05-07T19:43:10.480Z,5.90
2023-05-07T19:45:42.742Z,5.40
2023-05-07T19:48:11.021Z,5.20
2023-05-07T19:50:38.933Z,5.05
2023-05-07T19:53:07.063Z,4.55
2023-05-07T19:55:36.662Z,4.47
2023-05-07T19:58:04.604Z,4.93
2023-05-07T20:00:33.807Z,5.10
2023-05-07T20:03:01.995Z,4.60
2023-05-07T20:05:29.973Z,4.10
2023-05-07T20:07:58.367Z,4.47
2023-05-07T20:10:26.275Z,4.13
2023-05-07T20:12:55.652Z,4.40
2023-05-07T20:15:23.825Z,4.70
2023-05-07T20:17:51.755Z,3.88
2023-05-07T20:20:19.836Z,4.00
2023-05-07T20:22:47.857Z,4.07
2023-05-07T20:25:15.908Z,4.20
2023-05-07T20:27:43.798Z,3.70
2023-05-07T20:30:14.815Z,4.20
2023-05-07T20:32:43.493Z,4.70
2023-05-07T20:35:11.732Z,4.30
2023-05-07T20:37:40.608Z,3.92
2023-05-07T20:40:09.740Z,4.40
2023-05-07T20:42:37.630Z,4.10
2023-05-07T20:45:06.212Z,4.55
2023-05-07T20:47:35.703Z,4.15
2023-05-07T20:50:04.140Z,4.20
2023-05-07T20:52:32.022Z,3.90
2023-05-07T20:54:59.890Z,3.50
2023-05-07T20:57:27.904Z,4.07
2023-05-07T20:59:55.747Z,3.90
2023-05-07T21:02:23.737Z,3.90
2023-05-07T21:04:53.138Z,3.80
2023-05-07T21:07:21.074Z,4.30
2023-05-07T21:09:48.931Z,4.15
2023-05-07T21:12:16.875Z,3.75
2023-05-07T21:14:44.822Z,3.90
2023-05-07T21:17:12.744Z,4.00
2023-05-07T21:19:43.064Z,4.20
2023-05-07T21:22:12.393Z,4.50
2023-05-07T21:24:41.285Z,4.40
2023-05-07T21:27:09.350Z,4.22
2023-05-07T21:29:37.290Z,4.30
2023-05-07T21:32:05.758Z,3.92
2023-05-07T21:34:33.747Z,4.40
2023-05-07T21:37:01.656Z,4.00
2023-05-07T21:39:30.905Z,4.30
2023-05-07T21:41:58.826Z,4.70
2023-05-07T21:44:29.305Z,4.80
2023-05-07T21:46:57.194Z,4.68
2023-05-07T21:49:25.062Z,5.10
2023-05-07T21:51:52.922Z,4.55
2023-05-07T21:54:20.893Z,4.90
2023-05-07T21:56:50.266Z,4.43
2023-05-07T21:59:18.232Z,5.18
2023-05-07T22:01:46.190Z,5.00
2023-05-07T22:04:14.077Z,4.70
2023-05-07T22:06:42.001Z,4.80
2023-05-07T22:09:10.612Z,5.47
2023-05-07T22:11:38.501Z,5.40
2023-05-07T22:14:07.810Z,4.50
2023-05-07T22:16:35.869Z,4.80
2023-05-07T22:19:03.900Z,5.03
2023-05-07T22:21:32.069Z,4.97
2023-05-07T22:24:00.674Z,4.90
2023-05-07T22:26:28.690Z,5.10
2023-05-07T22:28:58.189Z,5.20
2023-05-07T22:31:27.670Z,4.60
2023-05-07T22:33:55.666Z,5.03
2023-05-07T22:36:23.598Z,4.95
2023-05-07T22:38:51.484Z,5.15
2023-05-07T22:41:19.290Z,5.40
2023-05-07T22:43:47.186Z,5.43
2023-05-07T22:46:15.167Z,5.32
2023-05-07T22:48:44.856Z,5.10
2023-05-07T22:51:14.708Z,5.07
2023-05-07T22:53:42.594Z,5.50
2023-05-07T22:56:10.997Z,5.32
2023-05-07T22:58:39.083Z,5.10
2023-05-07T23:01:13.323Z,5.70
2023-05-07T23:03:41.344Z,4.70
2023-05-07T23:06:10.671Z,4.88
2023-05-07T23:08:38.557Z,4.90
2023-05-07T23:11:06.619Z,4.78
2023-05-07T23:13:34.866Z,4.95
2023-05-07T23:16:02.789Z,5.10
2023-05-07T23:18:32.479Z,5.30
2023-05-07T23:21:00.436Z,4.90
2023-05-07T23:23:33.612Z,5.00
2023-05-07T23:26:01.861Z,5.03
2023-05-07T23:28:29.801Z,4.85
2023-05-07T23:30:57.780Z,4.82
2023-05-07T23:33:25.810Z,5.30
2023-05-07T23:36:00.282Z,5.20
2023-05-07T23:38:29.533Z,5.00
2023-05-07T23:40:57.758Z,5.15
2023-05-07T23:43:25.784Z,5.38
2023-05-07T23:45:53.957Z,5.43
2023-05-07T23:48:21.853Z,5.20
2023-05-07T23:50:49.852Z,5.40
2023-05-07T23:53:17.755Z,5.43
2023-05-07T23:55:47.144Z,5.97
2023-05-07T23:58:15.038Z,5.25
